Time;durP1;ratioP1;P1;durP2;ratioP2;P2;SDS_P1;SDS_P2;PMS_P1;PMS_P2;Temp;Humidity;BMP_temperature;BMP_pressure;BME280_temperature;BME280_humidity;BME280_pressure;Samples;Min_cycle;Max_cycle;Signal;HPM_P1;HPM_P2
2021/08/31 00:02:23;;;;;;;11.80;4.03;;;;;;;14.03;54.46;102243.66;5059890;28;20041;-70
2021/08/31 00:04:48;;;;;;;6.55;3.58;;;;;;;13.96;54.56;102237.75;5058961;28;20039;-69
2021/08/31 00:07:14;;;;;;;8.52;3.42;;;;;;;13.97;54.66;102239.47;5077021;28;20057;-68
2021/08/31 00:09:40;;;;;;;8.88;3.35;;;;;;;13.93;54.77;102246.59;5063320;28;20513;-68
2021/08/31 00:12:06;;;;;;;13.52;4.78;;;;;;;14.00;54.79;102249.03;5061495;28;20040;-68
2021/08/31 00:14:35;;;;;;;8.48;4.60;;;;;;;14.01;54.19;102242.84;5074120;28;20063;-69
2021/08/31 00:17:00;;;;;;;6.78;3.65;;;;;;;13.99;54.18;102244.69;5073924;28;20628;-68
2021/08/31 00:19:26;;;;;;;9.10;4.00;;;;;;;13.97;54.27;102246.50;5054565;28;20032;-69
2021/08/31 00:21:51;;;;;;;15.30;4.60;;;;;;;13.90;54.15;102251.97;5057425;28;20016;-69
2021/08/31 00:24:17;;;;;;;13.88;4.53;;;;;;;13.76;54.63;102248.91;5058053;28;20035;-70
2021/08/31 00:26:43;;;;;;;11.05;4.75;;;;;;;13.60;55.33;102259.03;5038518;28;20745;-68
2021/08/31 00:29:08;;;;;;;10.88;5.28;;;;;;;13.60;55.35;102256.41;5057865;28;20047;-68
2021/08/31 00:31:34;;;;;;;9.15;4.32;;;;;;;13.61;55.19;102254.66;5072905;28;20032;-68
2021/08/31 00:33:59;;;;;;;8.85;4.75;;;;;;;13.62;55.30;102256.38;5071891;28;20100;-69
2021/08/31 00:36:25;;;;;;;7.82;4.38;;;;;;;13.61;55.20;102252.88;5056327;28;20051;-69
2021/08/31 00:38:50;;;;;;;17.30;5.28;;;;;;;13.65;55.23;102261.50;5056753;28;20366;-68
2021/08/31 00:41:16;;;;;;;9.68;4.70;;;;;;;13.65;55.14;102258.88;5061530;28;20039;-69
2021/08/31 00:43:49;;;;;;;15.98;5.25;;;;;;;13.62;55.02;102261.63;5057863;28;20032;-69
2021/08/31 00:46:19;;;;;;;5.25;3.22;;;;;;;13.64;55.24;102259.81;5062744;28;20068;-69
2021/08/31 00:48:46;;;;;;;7.18;3.63;;;;;;;13.60;54.92;102259.03;5044419;28;20028;-69
2021/08/31 00:51:13;;;;;;;9.07;4.07;;;;;;;13.56;54.90;102261.75;5059008;28;20056;-69
2021/08/31 00:53:42;;;;;;;8.20;4.18;;;;;;;13.56;55.06;102265.25;5040453;28;20025;-68
2021/08/31 00:56:11;;;;;;;10.82;4.03;;;;;;;13.58;55.10;102262.63;5056712;28;20052;-69
2021/08/31 00:58:41;;;;;;;13.75;4.15;;;;;;;13.57;55.00;102263.53;5054605;28;20045;-69
2021/08/31 01:01:06;;;;;;;6.50;3.20;;;;;;;13.51;54.98;102257.50;5056578;28;20032;-70
2021/08/31 01:03:32;;;;;;;6.40;3.28;;;;;;;13.58;54.53;102265.25;5040069;28;20063;-68
2021/08/31 01:05:59;;;;;;;8.77;3.28;;;;;;;13.53;54.64;102266.19;5072782;28;20174;-68
2021/08/31 01:08:25;;;;;;;10.38;4.50;;;;;;;13.42;54.46;102265.66;5065295;28;20128;-71
2021/08/31 01:10:53;;;;;;;7.68;3.58;;;;;;;13.39;54.66;102265.78;5061047;28;20029;-69
2021/08/31 01:13:19;;;;;;;7.40;3.05;;;;;;;13.31;54.76;102265.97;5073253;28;20045;-70
2021/08/31 01:15:46;;;;;;;5.28;3.33;;;;;;;13.35;54.61;102269.41;5071715;28;20039;-69
2021/08/31 01:18:20;;;;;;;6.05;3.25;;;;;;;13.30;54.48;102263.44;5056067;28;20099;-69
2021/08/31 01:20:47;;;;;;;7.05;3.13;;;;;;;13.26;54.42;102272.28;5062343;28;20028;-69
2021/08/31 01:23:15;;;;;;;7.13;3.00;;;;;;;13.18;54.25;102274.25;5057397;28;20028;-69
2021/08/31 01:25:45;;;;;;;7.18;3.70;;;;;;;13.00;54.79;102273.03;5056463;28;20064;-69
2021/08/31 01:28:40;;;;;;;9.15;3.85;;;;;;;12.86;54.98;102270.78;5078110;28;20415;-68
2021/08/31 01:31:06;;;;;;;6.47;3.15;;;;;;;12.87;54.76;102272.50;5053208;28;20498;-69
2021/08/31 01:33:33;;;;;;;10.50;3.85;;;;;;;12.82;54.79;102269.16;5056989;28;20044;-69
2021/08/31 01:36:20;;;;;;;7.10;3.38;;;;;;;12.86;54.76;102276.03;5056622;28;20385;-69
2021/08/31 01:38:50;;;;;;;9.10;3.50;;;;;;;12.85;54.59;102274.34;5059670;28;20130;-69
2021/08/31 01:41:16;;;;;;;12.10;3.95;;;;;;;12.78;54.56;102272.75;5055638;28;20124;-69
2021/08/31 01:43:42;;;;;;;8.88;3.40;;;;;;;12.76;54.49;102277.19;5058148;28;20132;-69
2021/08/31 01:46:08;;;;;;;7.22;3.97;;;;;;;12.69;54.88;102280.00;5059378;28;20120;-69
2021/08/31 01:48:34;;;;;;;13.30;3.97;;;;;;;12.75;54.78;102278.09;5074372;28;20040;-69
2021/08/31 01:50:59;;;;;;;6.80;3.60;;;;;;;12.72;54.99;102275.56;5056925;28;20036;-69
2021/08/31 01:53:25;;;;;;;7.13;3.72;;;;;;;12.67;54.65;102284.38;5064942;28;20112;-70
2021/08/31 01:55:50;;;;;;;8.15;3.75;;;;;;;12.69;54.77;102277.38;5058864;28;20094;-69
2021/08/31 01:58:16;;;;;;;9.68;4.13;;;;;;;12.66;54.71;102274.78;5037903;28;20043;-69
2021/08/31 02:00:42;;;;;;;7.13;3.50;;;;;;;12.70;54.62;102275.59;5054796;28;20032;-69
2021/08/31 02:03:08;;;;;;;7.63;4.32;;;;;;;12.62;54.59;102273.13;5058286;28;20611;-69
2021/08/31 02:05:33;;;;;;;7.43;3.90;;;;;;;12.62;54.76;102267.88;5057338;28;20765;-69
2021/08/31 02:07:59;;;;;;;8.95;3.80;;;;;;;12.60;54.69;102269.72;5055333;28;20090;-70
2021/08/31 02:10:25;;;;;;;7.38;4.38;;;;;;;12.52;54.53;102269.03;5060193;28;20085;-69
2021/08/31 02:12:50;;;;;;;7.53;3.35;;;;;;;12.48;54.56;102264.78;5057879;28;20055;-69
2021/08/31 02:15:16;;;;;;;7.07;3.30;;;;;;;12.49;54.30;102264.75;5065959;28;20128;-70
2021/08/31 02:17:42;;;;;;;3.53;2.65;;;;;;;12.44;54.50;102257.88;5055713;28;20029;-69
2021/08/31 02:20:09;;;;;;;4.35;3.00;;;;;;;12.41;54.51;102252.72;5073376;28;20044;-69
2021/08/31 02:22:35;;;;;;;5.10;3.03;;;;;;;12.33;54.35;102265.16;5077643;28;20040;-69
2021/08/31 02:25:00;;;;;;;10.70;3.80;;;;;;;12.34;54.25;102256.41;5044149;28;20126;-70
2021/08/31 02:27:26;;;;;;;6.13;2.95;;;;;;;12.29;54.56;102254.75;5075817;28;20090;-69
2021/08/31 02:29:51;;;;;;;7.35;3.92;;;;;;;12.32;54.32;102258.22;5059465;28;20025;-70
2021/08/31 02:32:17;;;;;;;7.40;3.90;;;;;;;12.28;54.32;102262.66;5058436;28;20032;-70
2021/08/31 02:34:43;;;;;;;5.80;2.75;;;;;;;12.21;54.35;102261.94;5056200;28;20393;-69
2021/08/31 02:37:08;;;;;;;7.30;3.83;;;;;;;12.22;54.33;102255.81;5058644;28;20064;-69
2021/08/31 02:39:35;;;;;;;8.80;3.55;;;;;;;12.21;54.16;102261.09;5059876;28;20066;-69
2021/08/31 02:42:01;;;;;;;6.85;3.10;;;;;;;12.21;54.23;102272.44;5062627;28;23370;-68
2021/08/31 02:44:27;;;;;;;7.72;3.47;;;;;;;12.20;54.15;102269.84;5076476;28;20040;-68
2021/08/31 02:46:53;;;;;;;5.32;2.65;;;;;;;12.16;54.19;102269.06;5061203;28;20389;-70
2021/08/31 02:49:18;;;;;;;6.45;3.13;;;;;;;12.16;53.93;102269.06;5059847;28;20040;-69
2021/08/31 02:51:44;;;;;;;8.07;3.65;;;;;;;12.10;53.92;102269.22;5058398;28;20037;-69
2021/08/31 02:54:09;;;;;;;6.63;3.60;;;;;;;12.09;54.10;102272.75;5075205;28;20044;-69
2021/08/31 02:56:35;;;;;;;5.93;3.30;;;;;;;12.01;54.03;102274.69;5059725;28;20058;-69
2021/08/31 02:59:00;;;;;;;6.15;2.85;;;;;;;12.01;54.04;102272.06;5060130;28;20051;-69
2021/08/31 03:01:33;;;;;;;9.88;4.30;;;;;;;11.93;54.15;102277.47;5059896;28;20035;-72
2021/08/31 03:03:59;;;;;;;5.38;3.30;;;;;;;11.92;54.03;102277.53;5061991;28;20033;-69
2021/08/31 03:06:26;;;;;;;6.88;3.28;;;;;;;11.86;54.11;102276.75;5060468;28;20033;-69
2021/08/31 03:08:52;;;;;;;8.00;3.65;;;;;;;11.81;54.08;102278.63;5076342;28;20039;-69
2021/08/31 03:11:18;;;;;;;5.00;2.92;;;;;;;11.80;53.91;102283.91;5075946;28;20029;-69
2021/08/31 03:13:44;;;;;;;8.55;3.15;;;;;;;11.77;54.06;102281.31;5060464;28;20028;-69
2021/08/31 03:16:09;;;;;;;5.68;2.75;;;;;;;11.73;53.88;102285.78;5059365;28;20102;-69
2021/08/31 03:18:38;;;;;;;5.35;3.50;;;;;;;11.76;53.98;102283.06;5061450;28;20389;-68
2021/08/31 03:21:10;;;;;;;4.32;2.58;;;;;;;11.74;53.61;102291.88;5064050;28;20029;-70
2021/08/31 03:23:36;;;;;;;4.70;3.05;;;;;;;11.70;53.66;102285.81;5058300;28;20045;-70
2021/08/31 03:26:01;;;;;;;4.57;2.22;;;;;;;11.67;53.74;102293.75;5060591;28;20111;-69
2021/08/31 03:28:27;;;;;;;8.55;3.75;;;;;;;11.59;53.43;102293.91;5062758;28;20411;-69
2021/08/31 03:30:52;;;;;;;5.38;3.03;;;;;;;11.60;53.35;102292.19;5060447;28;20036;-69
2021/08/31 03:33:18;;;;;;;5.28;2.80;;;;;;;11.60;53.34;102294.81;5060342;28;20037;-69
2021/08/31 03:35:43;;;;;;;7.10;3.38;;;;;;;11.56;53.44;102293.13;5058072;28;20040;-69
2021/08/31 03:38:09;;;;;;;5.32;2.70;;;;;;;11.53;53.32;102295.81;5058473;28;20103;-69
2021/08/31 03:40:35;;;;;;;6.03;2.45;;;;;;;11.44;53.56;102302.97;5063447;28;20043;-69
2021/08/31 03:43:01;;;;;;;6.05;2.95;;;;;;;11.50;53.29;102293.25;5059959;28;20044;-68
2021/08/31 03:45:26;;;;;;;7.05;3.22;;;;;;;11.46;53.13;102292.44;5057059;28;20090;-69
2021/08/31 03:47:52;;;;;;;6.65;2.67;;;;;;;11.51;53.03;102300.22;5062385;28;20086;-69
2021/08/31 03:50:17;;;;;;;4.75;3.20;;;;;;;11.42;53.24;102296.06;5058686;28;20126;-68
2021/08/31 03:52:43;;;;;;;5.65;2.30;;;;;;;11.39;53.01;102306.56;5059282;28;20059;-69
2021/08/31 03:55:09;;;;;;;4.95;2.40;;;;;;;11.41;52.99;102307.41;5073472;28;20522;-69
2021/08/31 03:57:35;;;;;;;3.15;2.30;;;;;;;11.38;52.81;102310.94;5041326;28;20028;-70
2021/08/31 04:00:00;;;;;;;5.07;2.78;;;;;;;11.31;53.13;102309.34;5056665;28;20384;-70
2021/08/31 04:02:25;;;;;;;7.53;2.55;;;;;;;11.42;52.68;102304.75;5059395;28;20039;-69
2021/08/31 04:04:51;;;;;;;5.30;2.72;;;;;;;11.40;53.07;102311.78;5060907;28;20041;-70
2021/08/31 04:07:17;;;;;;;5.03;2.72;;;;;;;11.44;52.91;102304.72;5076013;28;20040;-69
2021/08/31 04:09:43;;;;;;;4.78;2.97;;;;;;;11.44;52.60;102308.22;5041684;28;20042;-69
2021/08/31 04:12:09;;;;;;;4.38;2.10;;;;;;;11.29;52.75;102305.91;5055273;28;20036;-70
2021/08/31 04:14:34;;;;;;;8.38;3.08;;;;;;;11.43;52.27;102314.31;5070815;28;20036;-68
2021/08/31 04:17:00;;;;;;;3.15;2.00;;;;;;;11.35;52.47;102311.03;5058943;28;20031;-68
2021/08/31 04:19:25;;;;;;;5.47;3.00;;;;;;;11.28;52.71;102309.41;5059110;28;22194;-69
2021/08/31 04:21:51;;;;;;;6.10;2.75;;;;;;;11.14;53.17;102314.06;5057499;28;20255;-69
2021/08/31 04:24:19;;;;;;;5.65;2.90;;;;;;;11.10;53.37;102315.00;5040378;28;20094;-68
2021/08/31 04:26:44;;;;;;;6.05;2.97;;;;;;;11.11;53.42;102314.13;5058002;28;20510;-68
2021/08/31 04:29:10;;;;;;;6.18;3.45;;;;;;;11.09;53.63;102319.38;5061510;28;20037;-68
2021/08/31 04:31:36;;;;;;;6.43;3.03;;;;;;;11.11;53.89;102316.75;5056185;28;20067;-69
2021/08/31 04:34:02;;;;;;;6.32;2.83;;;;;;;11.19;53.61;102315.69;5054940;28;20036;-70
2021/08/31 04:36:28;;;;;;;5.82;3.00;;;;;;;11.28;53.63;102314.63;5059904;28;20035;-68
2021/08/31 04:38:53;;;;;;;5.03;2.65;;;;;;;11.30;53.50;102320.72;5057788;28;20569;-68
2021/08/31 04:41:19;;;;;;;5.18;3.25;;;;;;;11.31;53.35;102314.59;5059466;28;20056;-68
2021/08/31 04:43:44;;;;;;;8.60;2.90;;;;;;;11.32;53.67;102321.53;5055837;28;20040;-69
2021/08/31 04:46:10;;;;;;;6.82;2.90;;;;;;;11.33;53.76;102318.03;5057050;28;20040;-69
2021/08/31 04:48:39;;;;;;;6.38;2.83;;;;;;;11.35;54.19;102316.25;5059364;28;20029;-69
2021/08/31 04:51:06;;;;;;;5.25;2.75;;;;;;;11.48;53.43;102316.00;5072784;28;20036;-69
2021/08/31 04:53:32;;;;;;;4.90;3.00;;;;;;;11.52;53.68;102323.75;5054188;28;20029;-68
2021/08/31 04:55:57;;;;;;;4.95;2.90;;;;;;;11.59;53.64;102316.63;5057785;28;20032;-68
2021/08/31 04:58:23;;;;;;;5.05;2.53;;;;;;;11.66;53.78;102320.84;5071197;28;20024;-68
2021/08/31 05:00:48;;;;;;;6.13;2.75;;;;;;;11.76;53.38;102325.00;5055457;28;20033;-70
2021/08/31 05:03:14;;;;;;;4.80;2.63;;;;;;;11.92;53.38;102322.06;5058171;28;20071;-68
2021/08/31 05:05:41;;;;;;;8.98;2.65;;;;;;;11.96;53.34;102324.56;5056177;28;20077;-69
2021/08/31 05:08:06;;;;;;;5.22;2.88;;;;;;;12.06;52.81;102319.97;5071618;28;20036;-69
2021/08/31 05:10:32;;;;;;;5.38;3.05;;;;;;;12.13;52.90;102329.41;5061521;28;20028;-68
2021/08/31 05:12:57;;;;;;;4.05;2.47;;;;;;;12.24;52.67;102319.53;5066046;28;20031;-69
2021/08/31 05:15:23;;;;;;;7.97;2.85;;;;;;;12.32;52.50;102326.38;5058627;28;20100;-69
2021/08/31 05:17:49;;;;;;;8.32;2.88;;;;;;;12.33;52.60;102328.09;5053798;28;20036;-68
2021/08/31 05:20:15;;;;;;;5.57;2.28;;;;;;;12.39;52.35;102327.94;5055978;28;20120;-68
2021/08/31 05:22:40;;;;;;;4.25;2.53;;;;;;;12.42;52.33;102330.47;5062663;28;20032;-68
2021/08/31 05:25:06;;;;;;;5.32;2.00;;;;;;;12.52;52.36;102333.75;5060971;28;20081;-69
2021/08/31 05:27:32;;;;;;;4.07;2.30;;;;;;;12.63;52.54;102335.19;5057038;28;20421;-68
2021/08/31 05:29:58;;;;;;;6.70;3.20;;;;;;;12.69;52.23;102331.56;5057051;28;20601;-68
2021/08/31 05:32:24;;;;;;;6.30;3.15;;;;;;;13.97;51.54;102334.09;5057414;28;20044;-68
2021/08/31 05:34:50;;;;;;;7.20;3.35;;;;;;;16.46;47.10;102332.16;5055710;28;20045;-68
2021/08/31 05:37:16;;;;;;;5.25;2.50;;;;;;;18.48;41.46;102332.63;5056421;28;20037;-68
2021/08/31 05:39:41;;;;;;;4.63;2.30;;;;;;;20.08;37.92;102335.50;5063959;28;20028;-68
2021/08/31 05:42:09;;;;;;;4.85;2.67;;;;;;;20.99;36.36;102327.50;5056183;28;20044;-69
2021/08/31 05:44:37;;;;;;;8.52;2.85;;;;;;;21.98;32.78;102335.44;5055208;28;20227;-69
2021/08/31 05:47:03;;;;;;;4.70;2.42;;;;;;;22.69;32.10;102330.72;5069629;28;20111;-69
2021/08/31 05:49:30;;;;;;;5.65;2.42;;;;;;;23.72;30.13;102329.63;5058038;28;20036;-68
2021/08/31 05:51:56;;;;;;;4.45;2.38;;;;;;;24.52;29.02;102329.00;5061746;28;20618;-68
2021/08/31 05:54:24;;;;;;;5.85;1.83;;;;;;;25.32;27.23;102328.09;5058708;28;20127;-68
2021/08/31 05:56:49;;;;;;;3.22;1.65;;;;;;;25.79;26.62;102322.53;5058918;28;20033;-70
2021/08/31 05:59:15;;;;;;;3.20;2.17;;;;;;;26.27;26.87;102325.63;5044251;28;20033;-68
2021/08/31 06:01:41;;;;;;;5.55;1.83;;;;;;;26.55;26.35;102327.78;5074673;28;20039;-68
2021/08/31 06:04:07;;;;;;;4.57;1.90;;;;;;;26.78;26.06;102333.84;5058935;28;20177;-69
2021/08/31 06:06:32;;;;;;;4.32;1.80;;;;;;;27.05;26.05;102334.13;5061144;28;20045;-69
2021/08/31 06:08:58;;;;;;;6.20;2.05;;;;;;;27.18;26.33;102327.69;5041083;28;20029;-68
2021/08/31 06:11:24;;;;;;;10.05;2.00;;;;;;;27.15;26.16;102333.34;5061357;28;20055;-69
2021/08/31 06:13:49;;;;;;;5.80;2.03;;;;;;;27.36;25.81;102328.72;5062913;28;20037;-69
2021/08/31 06:16:15;;;;;;;5.70;1.98;;;;;;;27.77;26.41;102331.38;5058711;28;20040;-69
2021/08/31 06:18:40;;;;;;;5.57;2.15;;;;;;;27.75;26.55;102333.34;5059059;28;20045;-69
2021/08/31 06:21:06;;;;;;;4.57;1.95;;;;;;;28.18;25.93;102335.63;5058602;28;20036;-68
2021/08/31 06:23:32;;;;;;;3.67;2.28;;;;;;;27.75;27.20;102336.03;5061114;28;20028;-69
2021/08/31 06:25:58;;;;;;;4.95;2.25;;;;;;;26.90;27.43;102346.22;5060320;28;20032;-69
2021/08/31 06:28:23;;;;;;;9.75;2.03;;;;;;;26.38;28.42;102345.28;5076068;28;20077;-69
2021/08/31 06:30:49;;;;;;;3.03;1.88;;;;;;;25.10;30.90;102346.84;5059773;28;20394;-68
2021/08/31 06:33:14;;;;;;;16.30;3.42;;;;;;;24.56;32.65;102346.50;5058952;28;20048;-69
2021/08/31 06:35:40;;;;;;;3.85;2.20;;;;;;;24.34;32.09;102355.28;5059521;28;20075;-69
2021/08/31 06:38:05;;;;;;;4.05;2.35;;;;;;;23.45;34.51;102360.97;5058740;28;20058;-69
2021/08/31 06:40:31;;;;;;;8.50;2.70;;;;;;;25.18;31.58;102363.13;5060571;28;20077;-69
2021/08/31 06:42:57;;;;;;;5.05;2.30;;;;;;;26.51;29.78;102367.41;5058963;28;20044;-68
2021/08/31 06:45:22;;;;;;;6.47;2.47;;;;;;;24.70;32.00;102357.97;5060448;28;20040;-68
2021/08/31 06:47:47;;;;;;;4.57;2.03;;;;;;;22.77;35.75;102371.03;5059262;28;20670;-69
2021/08/31 06:50:16;;;;;;;5.75;2.90;;;;;;;20.81;40.08;102369.31;5057561;28;20106;-69
2021/08/31 06:52:44;;;;;;;8.55;2.45;;;;;;;19.98;40.86;102371.47;5060241;28;20043;-68
2021/08/31 06:55:09;;;;;;;12.57;2.90;;;;;;;19.55;42.22;102371.22;5058630;28;20072;-68
2021/08/31 06:57:36;;;;;;;6.88;2.05;;;;;;;18.66;44.49;102374.03;5078803;28;20055;-68
2021/08/31 07:00:03;;;;;;;6.07;2.47;;;;;;;18.17;46.28;102372.94;5078728;28;20036;-68
2021/08/31 07:02:29;;;;;;;13.90;3.10;;;;;;;18.96;44.59;102373.41;5058692;28;20043;-69
2021/08/31 07:04:55;;;;;;;8.07;2.03;;;;;;;19.28;43.79;102371.72;5057075;28;20033;-68
2021/08/31 07:07:20;;;;;;;7.10;2.20;;;;;;;18.62;44.81;102382.22;5063127;28;20044;-70
2021/08/31 07:09:46;;;;;;;5.70;2.80;;;;;;;18.01;46.80;102380.78;5064334;28;20032;-68
2021/08/31 07:12:13;;;;;;;9.05;2.72;;;;;;;18.16;46.30;102384.44;5059053;28;20097;-69
2021/08/31 07:14:38;;;;;;;5.28;1.70;;;;;;;18.76;45.08;102387.66;5057530;28;20025;-68
2021/08/31 07:17:04;;;;;;;4.25;1.65;;;;;;;19.96;42.32;102383.97;5062301;28;20101;-68
2021/08/31 07:19:30;;;;;;;2.63;1.42;;;;;;;20.06;41.49;102385.16;5061369;28;20567;-68
2021/08/31 07:21:55;;;;;;;6.82;2.17;;;;;;;19.53;42.19;102391.63;5078699;28;20028;-68
2021/08/31 07:24:21;;;;;;;4.25;1.83;;;;;;;18.90;44.35;102400.25;5057549;28;20120;-69
2021/08/31 07:26:47;;;;;;;4.35;2.08;;;;;;;19.40;43.04;102401.16;5058909;28;20040;-68
2021/08/31 07:29:12;;;;;;;4.30;1.92;;;;;;;21.49;38.67;102397.13;5058070;28;20025;-69
2021/08/31 07:31:38;;;;;;;5.88;1.80;;;;;;;24.32;34.35;102396.44;5056430;28;20116;-70
2021/08/31 07:34:03;;;;;;;6.40;1.63;;;;;;;25.57;31.92;102395.72;5057210;28;20124;-68
2021/08/31 07:36:34;;;;;;;5.60;1.75;;;;;;;26.95;29.63;102399.47;5065787;28;20116;-69
2021/08/31 07:39:01;;;;;;;4.43;1.77;;;;;;;28.49;27.42;102402.66;5075885;28;20028;-68
2021/08/31 07:41:27;;;;;;;5.22;1.30;;;;;;;28.23;26.83;102400.56;5057033;28;20040;-69
2021/08/31 07:43:53;;;;;;;5.28;1.60;;;;;;;28.14;26.03;102398.72;5060435;28;20034;-69
2021/08/31 07:46:19;;;;;;;6.13;2.75;;;;;;;25.40;30.56;102408.63;5060840;28;20033;-70
2021/08/31 07:48:46;;;;;;;4.20;1.92;;;;;;;23.46;34.01;102405.41;5058752;28;20362;-70
2021/08/31 07:51:12;;;;;;;3.58;1.77;;;;;;;22.15;36.55;102415.06;5056133;28;20099;-69
2021/08/31 07:53:38;;;;;;;6.15;2.38;;;;;;;23.35;34.52;102420.34;5057810;28;20033;-68
2021/08/31 07:56:03;;;;;;;4.63;2.10;;;;;;;25.14;31.54;102410.69;5066361;28;20134;-68
2021/08/31 07:58:29;;;;;;;6.63;2.13;;;;;;;24.45;31.85;102418.63;5073493;28;20139;-69
2021/08/31 08:00:55;;;;;;;7.93;2.40;;;;;;;24.76;31.67;102427.00;5075746;28;20059;-69
2021/08/31 08:03:21;;;;;;;6.82;2.13;;;;;;;24.34;32.14;102426.56;5073811;28;20043;-69
2021/08/31 08:05:46;;;;;;;8.73;2.35;;;;;;;23.33;34.03;102434.75;5056201;28;20112;-69
2021/08/31 08:08:12;;;;;;;8.70;2.85;;;;;;;21.85;37.00;102430.34;5046016;28;20041;-69
2021/08/31 08:10:37;;;;;;;7.53;2.65;;;;;;;20.91;39.34;102434.28;5057543;28;20032;-69
2021/08/31 08:13:03;;;;;;;4.63;3.00;;;;;;;22.53;36.24;102435.66;5056793;28;20048;-69
2021/08/31 08:15:29;;;;;;;6.43;2.60;;;;;;;24.38;32.25;102438.75;5055547;28;20138;-68
2021/08/31 08:17:56;;;;;;;6.30;2.00;;;;;;;25.51;31.22;102433.66;5040732;28;20095;-69
2021/08/31 08:20:21;;;;;;;6.47;2.28;;;;;;;25.61;30.73;102440.03;5060293;28;20544;-70
2021/08/31 08:22:47;;;;;;;6.85;2.38;;;;;;;25.07;31.24;102438.03;5052656;28;20029;-69
2021/08/31 08:25:13;;;;;;;4.90;2.70;;;;;;;23.85;33.69;102448.84;5055487;28;20029;-69
2021/08/31 08:27:39;;;;;;;9.32;3.17;;;;;;;21.94;36.19;102443.91;5055077;28;20512;-68
2021/08/31 08:30:06;;;;;;;7.18;2.97;;;;;;;22.18;36.69;102443.31;5056440;28;20036;-68
2021/08/31 08:32:31;;;;;;;5.30;3.22;;;;;;;24.19;32.52;102444.59;5058915;28;20048;-68
2021/08/31 08:34:57;;;;;;;5.15;2.55;;;;;;;24.26;32.55;102442.31;5058131;28;20032;-67
2021/08/31 08:37:22;;;;;;;6.72;2.67;;;;;;;24.35;31.42;102445.16;5059599;28;20041;-68
2021/08/31 08:39:48;;;;;;;7.53;2.60;;;;;;;23.67;32.62;102448.38;5058182;28;20038;-68
2021/08/31 08:42:13;;;;;;;8.50;2.75;;;;;;;23.24;33.33;102446.88;5040757;28;20104;-67
2021/08/31 08:44:39;;;;;;;5.57;2.28;;;;;;;22.20;35.83;102451.19;5061853;28;20052;-67
2021/08/31 08:47:05;;;;;;;6.68;1.88;;;;;;;21.46;37.60;102446.00;5074549;28;20039;-67
2021/08/31 08:49:31;;;;;;;4.60;2.38;;;;;;;20.10;39.68;102450.41;5060466;28;20036;-68
2021/08/31 08:51:59;;;;;;;5.78;2.35;;;;;;;21.72;38.07;102449.75;5059866;28;20032;-67
2021/08/31 08:54:25;;;;;;;5.72;2.45;;;;;;;21.54;36.87;102456.22;5059851;28;20090;-67
2021/08/31 08:56:54;;;;;;;5.80;2.70;;;;;;;21.90;36.54;102454.88;5061741;28;20032;-69
2021/08/31 08:59:21;;;;;;;9.10;1.77;;;;;;;21.93;36.37;102452.00;5073804;28;20031;-67
2021/08/31 09:01:50;;;;;;;6.97;2.28;;;;;;;21.33;37.36;102453.03;5057710;28;20375;-68
2021/08/31 09:04:17;;;;;;;10.93;1.77;;;;;;;21.59;36.62;102448.81;5060498;28;20036;-68
2021/08/31 09:06:47;;;;;;;8.18;2.60;;;;;;;21.30;38.09;102448.75;5057276;28;20534;-67
2021/08/31 09:09:13;;;;;;;6.40;1.67;;;;;;;21.68;37.10;102448.22;5075340;28;20037;-68
2021/08/31 09:11:46;;;;;;;7.38;2.25;;;;;;;21.61;36.54;102452.22;5058656;28;20115;-68
2021/08/31 09:14:23;;;;;;;5.22;1.83;;;;;;;21.05;37.74;102451.22;5060794;28;20595;-69
2021/08/31 09:16:56;;;;;;;7.18;1.95;;;;;;;20.65;38.52;102456.19;5057294;28;20036;-69
2021/08/31 09:19:43;;;;;;;9.35;1.25;;;;;;;21.55;37.52;102456.09;5055092;28;20076;-69
2021/08/31 09:22:21;;;;;;;12.80;2.40;;;;;;;21.61;36.30;102456.69;5057211;28;20060;-68
2021/08/31 09:25:12;;;;;;;7.05;1.63;;;;;;;21.34;36.29;102462.75;5072548;28;20033;-69
2021/08/31 09:27:44;;;;;;;9.40;1.35;;;;;;;21.25;36.80;102455.31;5055328;28;20046;-68
2021/08/31 09:30:30;;;;;;;6.75;1.65;;;;;;;21.33;36.78;102467.22;5058574;28;20052;-68
2021/08/31 09:33:07;;;;;;;11.45;2.80;;;;;;;21.61;37.16;102465.53;5042613;28;20116;-68
2021/08/31 09:35:34;;;;;;;7.05;2.30;;;;;;;21.08;37.09;102480.25;5062037;28;20119;-68
2021/08/31 09:38:02;;;;;;;6.53;2.10;;;;;;;20.92;38.10;102469.69;5058137;28;20036;-69
2021/08/31 09:40:30;;;;;;;8.48;1.40;;;;;;;21.00;38.23;102471.88;5077352;28;20089;-70
2021/08/31 09:42:58;;;;;;;8.55;2.25;;;;;;;21.63;37.21;102466.28;5072207;28;20481;-69
2021/08/31 09:45:30;;;;;;;9.43;2.65;;;;;;;22.09;35.01;102474.06;5061622;28;20036;-69
2021/08/31 09:47:57;;;;;;;8.32;1.70;;;;;;;22.85;34.11;102472.66;5058267;28;20040;-69
2021/08/31 09:50:31;;;;;;;5.82;2.10;;;;;;;22.36;35.04;102470.53;5054440;28;20046;-68
2021/08/31 09:53:22;;;;;;;5.22;1.63;;;;;;;21.94;36.11;102464.38;5057530;28;20095;-70
2021/08/31 09:55:51;;;;;;;6.57;2.38;;;;;;;21.69;37.04;102465.03;5055505;28;20037;-68
2021/08/31 09:58:20;;;;;;;7.20;2.35;;;;;;;20.90;37.71;102472.44;5057043;28;20673;-72
2021/08/31 10:00:46;;;;;;;12.13;2.40;;;;;;;21.17;37.42;102471.72;5059207;28;20024;-69
2021/08/31 10:03:13;;;;;;;9.88;2.33;;;;;;;21.60;36.72;102470.94;5057461;28;20040;-69
2021/08/31 10:05:41;;;;;;;12.93;2.35;;;;;;;21.10;37.55;102473.06;5058559;28;20024;-70
2021/08/31 10:08:07;;;;;;;5.55;2.00;;;;;;;21.34;37.26;102473.38;5036162;28;20029;-70
2021/08/31 10:10:34;;;;;;;9.18;2.13;;;;;;;21.33;35.93;102477.84;5072546;28;20043;-69
2021/08/31 10:13:08;;;;;;;9.32;2.50;;;;;;;22.63;35.05;102472.34;5055747;28;20037;-68
2021/08/31 10:15:36;;;;;;;9.63;2.45;;;;;;;23.12;33.96;102479.72;5073851;28;20102;-69
2021/08/31 10:18:02;;;;;;;14.48;2.35;;;;;;;22.41;34.93;102473.78;5056509;28;20056;-71
2021/08/31 10:20:30;;;;;;;12.73;2.60;;;;;;;23.40;34.09;102479.56;5058888;28;20021;-69
2021/08/31 10:22:57;;;;;;;6.65;2.58;;;;;;;23.14;32.51;102478.69;5056026;28;20036;-67
2021/08/31 10:25:25;;;;;;;12.25;2.00;;;;;;;22.24;33.95;102482.00;5036426;28;20033;-70
2021/08/31 10:27:52;;;;;;;8.70;2.30;;;;;;;22.37;34.77;102482.94;5056295;28;20059;-69
2021/08/31 10:30:17;;;;;;;3.85;1.95;;;;;;;21.82;35.09;102473.13;5056380;28;20036;-68
2021/08/31 10:32:46;;;;;;;7.13;2.25;;;;;;;21.86;35.44;102477.28;5053430;28;20039;-68
2021/08/31 10:35:44;;;;;;;19.40;3.30;;;;;;;22.15;36.06;102478.13;5056898;28;20037;-69
2021/08/31 10:38:13;;;;;;;7.43;2.10;;;;;;;21.29;36.95;102488.78;5039920;28;20044;-69
2021/08/31 10:40:43;;;;;;;11.15;2.42;;;;;;;20.96;37.37;102491.63;5047123;28;20545;-69
2021/08/31 10:43:13;;;;;;;9.38;2.55;;;;;;;21.18;36.55;102492.06;5074813;28;20641;-68
2021/08/31 10:45:43;;;;;;;9.77;1.90;;;;;;;21.90;36.24;102490.31;5060343;28;20032;-68
2021/08/31 10:48:21;;;;;;;7.90;2.10;;;;;;;22.35;34.03;102487.50;5059615;28;20021;-68
2021/08/31 10:51:01;;;;;;;12.48;2.22;;;;;;;22.81;34.68;102497.81;5058988;28;20109;-68
2021/08/31 10:53:43;;;;;;;8.32;1.92;;;;;;;22.49;34.03;102497.25;5062963;28;20047;-68
2021/08/31 10:56:24;;;;;;;6.65;2.00;;;;;;;21.99;35.03;102499.53;5059796;28;20416;-68
2021/08/31 10:59:01;;;;;;;13.77;2.47;;;;;;;22.11;35.47;102498.75;5064295;28;20378;-69
2021/08/31 11:01:37;;;;;;;11.10;2.30;;;;;;;21.76;36.12;102501.84;5055984;28;20406;-69
2021/08/31 11:04:29;;;;;;;5.80;2.03;;;;;;;21.01;36.75;102505.50;5065179;28;20032;-68
2021/08/31 11:06:58;;;;;;;13.52;2.80;;;;;;;21.36;36.83;102504.25;5062538;28;20040;-67
2021/08/31 11:09:25;;;;;;;3.33;1.33;;;;;;;21.88;35.12;102502.84;5060093;28;20051;-67
2021/08/31 11:12:11;;;;;;;12.88;3.05;;;;;;;22.50;34.13;102507.81;5063547;28;20036;-68
2021/08/31 11:14:41;;;;;;;8.25;1.95;;;;;;;22.83;33.83;102501.25;5063918;28;20040;-69
2021/08/31 11:17:06;;;;;;;6.70;1.27;;;;;;;23.04;32.71;102514.06;5059191;28;20124;-69
2021/08/31 11:19:32;;;;;;;11.32;1.95;;;;;;;21.49;35.57;102511.50;5062752;28;20107;-69
2021/08/31 11:22:00;;;;;;;9.23;2.33;;;;;;;21.30;35.47;102506.41;5063609;28;20013;-68
2021/08/31 11:24:26;;;;;;;10.50;2.22;;;;;;;21.95;35.51;102508.66;5063256;28;20871;-68
2021/08/31 11:26:57;;;;;;;9.02;1.50;;;;;;;21.38;35.61;102503.28;5062654;28;20070;-69